Sunday, December 17, 2017, 3:29 PM CST
Back to Local

KTOP, Topeka Billard Municipal Airport

Location: Topeka, KS, United States Lat: 39.067
Local Time: 3:29 PM CST (21:29 GMT) Lon: -95.633
Time Zone: US/Central Elev: 882 ft

Show me the last for .
Show Decoded

2017-12-17 14:53 METAR KTOP 172053Z 26004KT 10SM SCT019 BKN029 11/07 A2997 RMK AO2 SLP150
                 T01060067 55006 $ =
2017-12-17 13:53 METAR KTOP 171953Z 22003KT 10SM FEW016 BKN023 BKN027 10/07 A2997 RMK AO2 SLP149
                 T01000067 $ =
2017-12-17 13:44 METAR KTOP 171944Z 28004KT 10SM FEW016 BKN025 10/07 A2996 RMK AO2 T01000067 $ =
2017-12-17 13:22 METAR KTOP 171922Z 30004KT 10SM SCT016 11/07 A2996 RMK AO2 T01060072 $ =
2017-12-17 12:53 METAR KTOP 171853Z 26004KT 10SM BKN014 10/07 A2996 RMK AO2 SLP148 T01000072 $ =
2017-12-17 11:53 METAR KTOP 171753Z 25005KT 10SM BKN011 OVC029 09/08 A2999 RMK AO2 SLP158 60007
                 T00890078 10089 20061 58012 $ =
2017-12-17 10:53 METAR KTOP 171653Z 22005KT 10SM BKN014 OVC019 08/07 A3003 RMK AO2 SLP171
                 T00780072 $ =
2017-12-17 10:02 METAR KTOP 171602Z 21005KT 5SM BR SCT010 OVC015 07/07 A3003 RMK AO2 T00720072 $
                 =
2017-12-17 09:53 METAR KTOP 171553Z 21005KT 5SM BR BKN008 OVC013 07/07 A3003 RMK AO2 RAB21E42 CIG
                 006V012 SLP171 P0000 T00720072 $ =
2017-12-17 08:53 METAR KTOP 171453Z 18005KT 10SM BKN007 OVC024 07/07 A3003 RMK AO2 RAE13 SLP171
                 P0001 60007 T00670067 53015 $ =
2017-12-17 08:30 METAR KTOP 171430Z VRB04KT 9SM BKN006 BKN023 OVC037 07/07 A3000 RMK AO2 RAE13
                 P0001 T00670067 $ =
2017-12-17 08:24 METAR KTOP 171424Z 19004KT 7SM SCT006 OVC037 07/06 A3001 RMK AO2 RAE13 P0000
                 T00670061 $ =
2017-12-17 07:53 METAR KTOP 171353Z 19007KT 4SM -RA BR SCT005 BKN020 OVC025 07/07 A3002 RMK AO2
                 RAB40 SLP167 P0000 T00670067 $ =
2017-12-17 07:08 METAR KTOP 171308Z 16005KT 9SM FEW006 OVC025 06/06 A2999 RMK AO2 T00610061 $ =
2017-12-17 06:53 METAR KTOP 171253Z 14003KT 10SM BKN024 BKN031 OVC042 06/06 A2998 RMK AO2 RAE41
                 SLP155 P0006 T00610061 $ =
2017-12-17 06:27 METAR KTOP 171227Z AUTO 13003KT 6SM -RA BR FEW011 BKN026 OVC060 06/06 A2998 RMK
                 AO2 P0005 T00610061 $ =
2017-12-17 05:53 METAR KTOP 171153Z AUTO 16003KT 7SM -RA SCT021 SCT032 OVC065 06/06 A2998 RMK AO2
                 SLP154 P0006 60015 70015 T00610061 10083 20050 53003 =
2017-12-17 05:05 METAR KTOP 171105Z AUTO 00000KT 5SM -RA BR SCT011 OVC055 07/07 A2998 RMK AO2
                 P0001 T00670067 =
2017-12-17 04:53 METAR KTOP 171053Z AUTO 19003KT 5SM -RA BR BKN011 BKN043 OVC055 07/07 A2998 RMK
                 AO2 SLP151 P0006 T00670067 =
2017-12-17 04:21 METAR KTOP 171021Z AUTO 21004KT 9SM -RA BKN014 OVC023 07/06 A2997 RMK AO2 P0002
                 T00670061 =
2017-12-17 04:10 METAR KTOP 171010Z AUTO 21003KT 8SM -RA SCT012 BKN017 OVC055 07/06 A2996 RMK AO2
                 P0001 T00670061 =
2017-12-17 03:53 METAR KTOP 170953Z AUTO 20004KT 10SM -RA FEW016 OVC055 07/06 A2996 RMK AO2
                 SLP146 P0003 T00670056 =
2017-12-17 02:53 METAR KTOP 170853Z AUTO 20007KT 10SM -RA BKN060 OVC070 08/04 A2997 RMK AO2 RAB05
                 SLP148 P0000 60000 T00830039 53005 =
2017-12-17 01:53 METAR KTOP 170753Z AUTO 00000KT 10SM FEW075 BKN100 BKN120 07/00 A2996 RMK AO2
                 SLP144 T00670000 =
2017-12-17 00:53 METAR KTOP 170653Z AUTO 07003KT 10SM CLR 06/00 A2996 RMK AO2 SLP144 T00560000 =
2017-12-16 23:53 METAR KTOP 170553Z AUTO 00000KT 10SM CLR 06/M01 A2996 RMK AO2 SLPNO T00561011
                 10111 20033 53007 =
2017-12-16 22:53 METAR KTOP 170453Z AUTO 10004KT 10SM CLR 06/M02 A2994 RMK AO2 SLPNO T00561017 =
2017-12-16 21:53 METAR KTOP 170353Z AUTO 13003KT 10SM CLR 06/M03 A2995 RMK AO2 SLPNO T00561028 =
2017-12-16 20:53 METAR KTOP 170253Z AUTO 10004KT 10SM CLR 04/M02 A2994 RMK AO2 SLPNO T00391017
                 51009 =
2017-12-16 19:53 METAR KTOP 170153Z AUTO 00000KT 10SM CLR 07/M03 A2992 RMK AO2 SLPNO T00721033 =
2017-12-16 18:53 METAR KTOP 170053Z 18004KT 10SM CLR 10/M03 A2992 RMK AO2 SLPNO T01001028 =
2017-12-16 17:53 METAR KTOP 162353Z 16006KT 10SM CLR 11/M03 A2991 RMK AO2 SLPNO T01061028 10161
                 20083 53023 =
2017-12-16 16:53 METAR KTOP 162253Z 15006KT 10SM CLR 12/M03 A2988 RMK AO2 SLPNO T01171028 =
2017-12-16 15:53 METAR KTOP 162153Z 18011KT 10SM CLR 16/M03 A2985 RMK AO2 SLPNO T01611028 =

Support USWX by starting your Amazon purchase here.